Time;durP1;ratioP1;P1;durP2;ratioP2;P2;SDS_P1;SDS_P2;PMS_P1;PMS_P2;Temp;Humidity;BMP_temperature;BMP_pressure;BME280_temperature;BME280_humidity;BME280_pressure;Samples;Min_cycle;Max_cycle;Signal;HPM_P1;HPM_P2
2022/10/30 00:00:07;;;;;;;8.07;5.28;;;18.40;81.10;;;;;;4990802;28;20034;-76
2022/10/30 00:02:33;;;;;;;10.73;5.88;;;18.40;81.80;;;;;;4989096;28;20035;-77
2022/10/30 00:04:59;;;;;;;11.02;5.97;;;18.40;81.20;;;;;;4989181;28;20041;-77
2022/10/30 00:07:24;;;;;;;9.77;5.20;;;18.30;81.10;;;;;;4990456;28;20042;-78
2022/10/30 00:09:52;;;;;;;14.00;5.72;;;18.30;81.10;;;;;;4988372;28;20042;-78
2022/10/30 00:12:17;;;;;;;11.30;4.90;;;18.30;81.20;;;;;;4990159;28;20026;-76
2022/10/30 00:14:43;;;;;;;12.07;5.07;;;18.30;81.30;;;;;;4987201;28;20037;-76
2022/10/30 00:17:08;;;;;;;12.25;5.57;;;18.30;81.30;;;;;;4988130;28;20117;-77
2022/10/30 00:19:34;;;;;;;9.02;4.78;;;18.30;81.40;;;;;;4989303;28;20058;-76
2022/10/30 00:22:01;;;;;;;10.68;6.10;;;18.30;81.50;;;;;;4990230;28;20033;-77
2022/10/30 00:24:28;;;;;;;10.23;4.88;;;18.20;81.40;;;;;;4988379;28;20489;-77
2022/10/30 00:26:53;;;;;;;12.27;5.80;;;18.20;81.40;;;;;;4988813;28;20041;-76
2022/10/30 00:29:22;;;;;;;8.75;4.30;;;18.20;81.50;;;;;;4983822;28;20479;-78
2022/10/30 00:31:48;;;;;;;9.77;5.15;;;18.20;81.50;;;;;;4989387;28;20022;-77
2022/10/30 00:34:14;;;;;;;16.40;5.47;;;18.20;81.60;;;;;;4990705;28;20057;-77
2022/10/30 00:36:39;;;;;;;12.27;4.90;;;18.10;81.60;;;;;;4987864;28;20038;-77
2022/10/30 00:39:05;;;;;;;8.73;4.88;;;18.10;81.70;;;;;;4990766;28;20126;-77
2022/10/30 00:41:30;;;;;;;10.07;4.63;;;18.10;81.80;;;;;;4981935;28;20038;-77
2022/10/30 00:43:56;;;;;;;10.15;3.97;;;18.10;81.90;;;;;;4989546;28;20022;-76
2022/10/30 00:46:39;;;;;;;12.63;5.45;;;18.10;81.90;;;;;;4988266;28;20112;-77
2022/10/30 00:49:11;;;;;;;11.93;5.03;;;18.00;82.10;;;;;;4983771;28;20030;-78
2022/10/30 00:51:49;;;;;;;10.20;4.60;;;18.00;82.00;;;;;;4988773;28;20080;-78
2022/10/30 00:54:16;;;;;;;11.27;4.53;;;18.00;82.10;;;;;;4981747;28;20169;-77
2022/10/30 00:56:43;;;;;;;9.00;5.05;;;18.00;82.10;;;;;;4988787;28;20022;-78
2022/10/30 00:59:12;;;;;;;8.57;4.43;;;17.90;82.20;;;;;;4982209;28;20038;-77
2022/10/30 01:01:43;;;;;;;7.50;3.90;;;17.90;82.10;;;;;;4982573;28;20578;-76
2022/10/30 01:04:09;;;;;;;11.05;4.30;;;17.90;82.20;;;;;;4987258;28;20025;-78
2022/10/30 01:06:38;;;;;;;8.15;4.53;;;17.90;82.30;;;;;;4987382;28;20045;-77
2022/10/30 01:09:04;;;;;;;11.27;5.35;;;17.90;82.40;;;;;;4987976;28;20042;-77
2022/10/30 01:11:30;;;;;;;7.80;3.58;;;17.80;82.50;;;;;;4988867;28;20101;-77
2022/10/30 01:14:00;;;;;;;9.18;4.53;;;17.80;82.40;;;;;;4988927;28;20030;-76
2022/10/30 01:17:10;;;;;;;9.13;4.10;;;17.80;82.60;;;;;;4988504;28;20086;-77
2022/10/30 01:19:55;;;;;;;9.25;4.65;;;17.80;82.80;;;;;;4988738;28;20030;-78
2022/10/30 01:22:45;;;;;;;7.85;4.68;;;17.80;82.80;;;;;;4988092;28;20058;-75
2022/10/30 01:25:26;;;;;;;9.30;4.70;;;17.80;82.80;;;;;;4988436;28;20440;-78
2022/10/30 01:28:06;;;;;;;8.23;4.78;;;17.80;82.70;;;;;;4986806;28;20305;-77
2022/10/30 01:30:31;;;;;;;;;;;17.70;82.60;;;;;;4985511;28;20045;-79
2022/10/30 01:33:22;;;;;;;7.20;4.03;;;17.70;82.40;;;;;;4987336;28;20577;-76
2022/10/30 01:35:56;;;;;;;8.65;4.25;;;17.70;82.60;;;;;;4981744;28;20396;-77
2022/10/30 01:38:41;;;;;;;8.23;4.65;;;17.60;82.60;;;;;;4987377;28;20110;-77
2022/10/30 01:41:06;;;;;;;8.20;5.05;;;17.60;82.90;;;;;;4993531;28;20050;-77
2022/10/30 01:43:34;;;;;;;7.65;3.88;;;17.60;82.90;;;;;;4989313;28;20485;-77
2022/10/30 01:46:20;;;;;;;7.22;4.35;;;17.60;83.00;;;;;;4987565;28;20113;-77
2022/10/30 01:49:04;;;;;;;7.22;3.92;;;17.50;83.20;;;;;;4990215;28;20096;-78
2022/10/30 01:51:48;;;;;;;8.48;4.57;;;17.50;83.20;;;;;;4977058;28;20023;-77
2022/10/30 01:55:15;;;;;;;6.53;4.30;;;17.50;83.40;;;;;;4983296;28;20034;-77
2022/10/30 01:57:54;;;;;;;11.68;5.07;;;17.50;83.60;;;;;;4945196;29;20027;-76
2022/10/30 02:00:20;;;;;;;10.00;5.03;;;17.50;83.60;;;;;;4947503;29;20042;-77
2022/10/30 02:02:47;;;;;;;10.13;5.03;;;17.50;83.50;;;;;;4971590;28;20054;-78
2022/10/30 02:05:25;;;;;;;9.88;5.63;;;17.40;83.60;;;;;;4988233;28;20023;-76
2022/10/30 02:07:50;;;;;;;9.73;4.65;;;17.40;83.70;;;;;;4976959;28;20061;-76
2022/10/30 02:10:16;;;;;;;9.85;5.15;;;17.40;83.50;;;;;;4987909;28;20756;-77
2022/10/30 02:12:42;;;;;;;9.15;5.35;;;17.40;83.60;;;;;;4986129;28;20023;-76
2022/10/30 02:15:09;;;;;;;10.45;4.70;;;17.40;83.60;;;;;;4977548;28;20042;-77
2022/10/30 02:17:36;;;;;;;12.20;5.57;;;17.30;83.70;;;;;;4987532;28;20168;-78
2022/10/30 02:20:02;;;;;;;12.23;4.78;;;17.30;83.80;;;;;;4981427;28;20419;-76
2022/10/30 02:22:28;;;;;;;8.07;4.18;;;17.30;83.60;;;;;;4981457;28;20093;-76
2022/10/30 02:24:53;;;;;;;8.60;4.93;;;17.30;83.70;;;;;;4987482;28;20026;-77
2022/10/30 02:27:19;;;;;;;8.40;4.60;;;17.30;83.60;;;;;;4988617;28;20022;-76
2022/10/30 02:29:45;;;;;;;10.32;4.55;;;17.30;83.80;;;;;;4986051;28;20038;-77
2022/10/30 02:32:10;;;;;;;7.53;3.78;;;17.30;83.90;;;;;;4987075;28;20049;-78
2022/10/30 02:34:36;;;;;;;8.50;5.15;;;17.30;84.10;;;;;;4987692;28;20029;-75
2022/10/30 02:37:02;;;;;;;9.98;5.38;;;17.30;84.20;;;;;;4985205;28;20093;-78
2022/10/30 02:39:28;;;;;;;8.23;4.95;;;17.30;84.30;;;;;;4988643;28;20026;-78
2022/10/30 02:41:54;;;;;;;6.57;4.45;;;17.20;84.30;;;;;;4987589;28;20231;-77
2022/10/30 02:44:20;;;;;;;9.23;4.95;;;17.20;84.20;;;;;;4988216;28;20050;-76
2022/10/30 02:46:45;;;;;;;8.25;4.20;;;17.20;84.50;;;;;;4982560;28;20504;-76
2022/10/30 02:49:11;;;;;;;9.68;5.22;;;17.20;84.50;;;;;;4981645;28;20085;-76
2022/10/30 02:51:37;;;;;;;10.07;5.63;;;17.20;84.50;;;;;;4988223;28;20033;-77
2022/10/30 02:54:02;;;;;;;10.23;6.20;;;17.20;84.60;;;;;;4988516;28;20853;-78
2022/10/30 02:56:28;;;;;;;14.50;5.50;;;17.20;84.60;;;;;;4987956;28;20026;-77
2022/10/30 02:58:55;;;;;;;11.88;6.13;;;17.20;84.70;;;;;;4987559;28;20026;-76
2022/10/30 03:01:20;;;;;;;8.20;4.05;;;17.10;84.70;;;;;;4987679;28;20034;-77
2022/10/30 03:03:46;;;;;;;9.27;5.18;;;17.10;84.90;;;;;;4988735;28;20073;-77
2022/10/30 03:06:14;;;;;;;9.50;4.53;;;17.10;84.90;;;;;;4990380;28;20061;-77
2022/10/30 03:08:40;;;;;;;11.52;5.57;;;17.10;84.90;;;;;;4991432;28;20104;-77
2022/10/30 03:11:16;;;;;;;8.50;4.53;;;17.10;84.90;;;;;;4990900;28;20026;-77
2022/10/30 03:13:43;;;;;;;10.05;4.63;;;17.10;85.10;;;;;;4990035;28;20014;-77
2022/10/30 03:16:18;;;;;;;8.52;4.55;;;17.00;85.00;;;;;;4990739;28;20050;-75
2022/10/30 03:18:45;;;;;;;9.20;4.55;;;17.10;85.20;;;;;;4991076;28;20069;-77
2022/10/30 03:21:13;;;;;;;10.98;5.88;;;17.00;85.10;;;;;;4991408;28;20643;-77
2022/10/30 03:23:39;;;;;;;11.30;6.05;;;17.00;85.20;;;;;;4982260;28;20065;-79
2022/10/30 03:26:05;;;;;;;10.25;5.28;;;17.00;85.10;;;;;;4990436;28;20070;-77
2022/10/30 03:28:32;;;;;;;12.77;6.45;;;17.00;85.20;;;;;;4991925;28;20040;-77
2022/10/30 03:31:04;;;;;;;16.70;6.47;;;16.90;85.40;;;;;;4991328;28;20030;-77
2022/10/30 03:33:30;;;;;;;7.72;4.75;;;17.00;85.50;;;;;;4987699;28;20662;-76
2022/10/30 03:35:56;;;;;;;10.65;5.00;;;17.00;85.60;;;;;;4988270;28;20468;-77
2022/10/30 03:38:22;;;;;;;7.75;4.50;;;17.00;85.80;;;;;;4990530;28;20085;-77
2022/10/30 03:40:47;;;;;;;8.90;4.90;;;17.00;85.90;;;;;;4989536;28;20023;-76
2022/10/30 03:43:13;;;;;;;9.40;5.15;;;16.90;86.00;;;;;;4981749;28;20034;-77
2022/10/30 03:45:39;;;;;;;13.70;6.57;;;16.90;86.00;;;;;;4979995;28;20034;-75
2022/10/30 03:48:05;;;;;;;12.77;5.22;;;16.90;85.90;;;;;;4982601;28;20516;-77
2022/10/30 03:50:32;;;;;;;8.27;4.65;;;16.90;85.90;;;;;;4975096;28;20027;-77
2022/10/30 03:52:57;;;;;;;9.60;5.00;;;16.90;85.90;;;;;;4990834;28;20826;-77
2022/10/30 03:55:24;;;;;;;9.70;5.40;;;16.90;86.00;;;;;;4990480;28;20034;-76
2022/10/30 03:57:51;;;;;;;10.48;5.28;;;16.90;86.00;;;;;;4987649;28;20046;-76
2022/10/30 04:00:18;;;;;;;10.13;4.88;;;16.80;86.00;;;;;;4978211;28;20054;-76
2022/10/30 04:02:48;;;;;;;14.07;5.95;;;16.90;86.00;;;;;;4989817;28;20054;-76
2022/10/30 04:05:16;;;;;;;9.07;4.90;;;16.80;86.00;;;;;;4990786;28;20023;-76
2022/10/30 04:07:42;;;;;;;9.00;5.35;;;16.80;86.00;;;;;;4990245;28;20038;-76
2022/10/30 04:10:08;;;;;;;9.90;5.10;;;16.80;86.10;;;;;;4987757;28;20026;-77
2022/10/30 04:12:33;;;;;;;9.73;5.95;;;16.80;86.20;;;;;;4981151;28;20444;-76
2022/10/30 04:14:59;;;;;;;10.70;6.10;;;16.80;86.30;;;;;;4989516;28;20062;-77
2022/10/30 04:17:25;;;;;;;11.48;5.60;;;16.80;86.20;;;;;;4987848;28;20088;-77
2022/10/30 04:19:50;;;;;;;11.57;6.05;;;16.80;86.30;;;;;;4988423;28;20033;-77
2022/10/30 04:22:16;;;;;;;8.27;5.20;;;16.80;86.20;;;;;;4990577;28;20019;-77
2022/10/30 04:24:41;;;;;;;11.13;4.95;;;16.80;86.10;;;;;;4987936;28;20034;-77
2022/10/30 04:27:07;;;;;;;10.48;5.43;;;16.80;86.80;;;;;;4978093;28;20042;-77
2022/10/30 04:29:33;;;;;;;8.90;5.18;;;16.80;86.40;;;;;;4994940;28;20036;-76
2022/10/30 04:31:58;;;;;;;9.05;4.53;;;16.80;86.40;;;;;;4988872;28;20056;-76
2022/10/30 04:34:25;;;;;;;10.23;6.07;;;16.80;86.60;;;;;;4988549;28;20780;-77
2022/10/30 04:36:50;;;;;;;10.73;5.63;;;16.80;86.60;;;;;;4990332;28;20033;-76
2022/10/30 04:39:16;;;;;;;9.63;5.45;;;16.70;86.70;;;;;;4989524;28;20034;-76
2022/10/30 04:41:41;;;;;;;10.30;5.28;;;16.80;86.80;;;;;;4988398;28;20022;-76
2022/10/30 04:44:07;;;;;;;8.05;4.45;;;16.70;86.60;;;;;;4985542;28;20027;-77
2022/10/30 04:46:33;;;;;;;11.18;5.32;;;16.70;86.50;;;;;;4989781;28;20030;-77
2022/10/30 04:48:58;;;;;;;10.15;4.40;;;16.60;86.20;;;;;;4987643;28;20027;-78
2022/10/30 04:51:25;;;;;;;7.63;4.55;;;16.60;86.50;;;;;;4990726;28;20455;-78
2022/10/30 04:53:51;;;;;;;12.30;4.82;;;16.60;86.40;;;;;;4990379;28;20097;-77
2022/10/30 04:56:16;;;;;;;9.00;4.70;;;16.60;86.40;;;;;;4988665;28;20133;-77
2022/10/30 04:58:42;;;;;;;8.18;4.85;;;16.60;86.40;;;;;;4984032;28;20054;-77
2022/10/30 05:01:07;;;;;;;8.52;4.65;;;16.60;86.40;;;;;;4988126;28;20022;-77
2022/10/30 05:03:33;;;;;;;11.75;6.55;;;16.60;86.60;;;;;;4988200;28;20477;-78
2022/10/30 05:06:05;;;;;;;13.38;5.03;;;16.60;86.60;;;;;;4987470;28;20034;-77
2022/10/30 05:08:31;;;;;;;8.10;4.95;;;16.50;86.30;;;;;;4986281;28;20030;-77
2022/10/30 05:10:57;;;;;;;10.48;4.57;;;16.50;86.20;;;;;;4989043;28;20680;-77
2022/10/30 05:13:22;;;;;;;10.02;4.90;;;16.50;86.30;;;;;;4988889;28;20023;-77
2022/10/30 05:15:48;;;;;;;12.43;6.80;;;16.50;86.30;;;;;;4981149;28;20078;-77
2022/10/30 05:18:14;;;;;;;12.35;6.15;;;16.50;86.30;;;;;;4988494;28;20473;-76
2022/10/30 05:20:39;;;;;;;11.13;5.55;;;16.40;86.20;;;;;;4989028;28;20116;-78
2022/10/30 05:23:05;;;;;;;12.20;5.60;;;16.40;86.40;;;;;;4989656;28;20026;-76
2022/10/30 05:25:31;;;;;;;10.43;5.40;;;16.50;86.60;;;;;;4989214;28;20014;-78
2022/10/30 05:27:58;;;;;;;9.70;4.57;;;16.40;86.30;;;;;;4981435;28;20437;-76
2022/10/30 05:30:30;;;;;;;12.80;5.38;;;16.50;86.40;;;;;;4987351;28;20023;-77
2022/10/30 05:33:04;;;;;;;11.55;6.35;;;16.50;86.80;;;;;;4984000;28;20045;-77
2022/10/30 05:35:32;;;;;;;11.68;7.05;;;16.40;86.90;;;;;;4984353;28;20188;-76
2022/10/30 05:37:59;;;;;;;9.38;5.47;;;16.40;87.10;;;;;;4981597;28;20041;-76
2022/10/30 05:40:25;;;;;;;13.18;7.63;;;16.40;87.30;;;;;;4985207;28;20026;-76
2022/10/30 05:42:51;;;;;;;10.48;6.35;;;16.40;87.50;;;;;;4971602;28;20464;-75
2022/10/30 05:45:18;;;;;;;10.18;6.03;;;16.40;87.30;;;;;;4989890;28;20022;-77
2022/10/30 05:47:53;;;;;;;10.63;6.72;;;16.40;87.30;;;;;;4992424;28;20764;-77
2022/10/30 05:50:18;;;;;;;13.55;7.40;;;16.40;87.40;;;;;;4992805;28;20030;-76
2022/10/30 05:52:44;;;;;;;8.32;5.57;;;16.40;87.20;;;;;;4997020;28;20050;-76
2022/10/30 05:55:11;;;;;;;11.80;5.93;;;16.40;87.20;;;;;;4997323;28;20034;-77
2022/10/30 05:57:37;;;;;;;13.10;7.05;;;16.30;87.50;;;;;;4996140;28;20026;-76
2022/10/30 06:00:04;;;;;;;15.15;8.18;;;16.30;87.70;;;;;;4997236;28;20100;-77
2022/10/30 06:02:29;;;;;;;12.90;6.78;;;16.30;87.70;;;;;;4995970;28;20038;-77
2022/10/30 06:04:55;;;;;;;11.60;6.20;;;16.20;87.80;;;;;;4993593;28;20049;-75
2022/10/30 06:07:21;;;;;;;12.10;6.35;;;16.20;87.90;;;;;;4991581;28;20030;-77
2022/10/30 06:09:46;;;;;;;12.45;7.10;;;16.20;88.00;;;;;;4990125;28;20104;-76
2022/10/30 06:12:13;;;;;;;15.05;6.75;;;16.20;87.90;;;;;;4990400;28;20029;-77
2022/10/30 06:14:38;;;;;;;12.77;7.78;;;16.10;88.00;;;;;;4989576;28;20147;-76
2022/10/30 06:17:04;;;;;;;13.43;6.85;;;16.10;88.10;;;;;;4990108;28;20037;-71
2022/10/30 06:19:30;;;;;;;23.52;7.45;;;16.10;88.30;;;;;;4996336;28;20124;-73
2022/10/30 06:21:55;;;;;;;20.23;8.75;;;16.30;89.90;;;;;;4993101;28;20034;-73
2022/10/30 06:24:21;;;;;;;17.95;8.48;;;16.60;90.90;;;;;;4999111;28;20148;-72
2022/10/30 06:26:46;;;;;;;16.23;8.38;;;17.00;91.30;;;;;;4990189;28;20048;-71
2022/10/30 06:29:12;;;;;;;14.30;7.97;;;17.20;91.70;;;;;;4987211;28;20101;-72
2022/10/30 06:31:38;;;;;;;14.80;7.72;;;17.40;92.00;;;;;;4987406;28;20061;-73
2022/10/30 06:34:04;;;;;;;10.00;6.10;;;17.60;92.00;;;;;;4987327;28;20038;-71
2022/10/30 06:36:29;;;;;;;13.73;6.45;;;17.80;91.90;;;;;;4981451;28;20054;-73
2022/10/30 06:38:58;;;;;;;11.77;6.28;;;17.90;91.70;;;;;;4990286;28;20511;-74
2022/10/30 06:41:23;;;;;;;14.38;7.00;;;18.00;91.50;;;;;;4991632;28;20700;-72
2022/10/30 06:43:49;;;;;;;17.15;8.30;;;18.20;91.40;;;;;;4984169;28;20028;-72
2022/10/30 06:46:15;;;;;;;12.63;6.22;;;18.20;91.10;;;;;;4991277;28;20030;-72
2022/10/30 06:48:40;;;;;;;14.93;6.88;;;18.30;90.90;;;;;;4988891;28;20070;-73
2022/10/30 06:51:06;;;;;;;12.35;5.32;;;18.40;90.70;;;;;;4990265;28;20036;-72
2022/10/30 06:53:31;;;;;;;11.82;6.25;;;18.50;90.50;;;;;;4990201;28;20027;-73
2022/10/30 06:55:59;;;;;;;13.77;7.07;;;18.60;90.30;;;;;;4989932;28;20222;-73
2022/10/30 06:58:26;;;;;;;14.50;7.65;;;18.70;89.90;;;;;;4989744;28;20022;-72
2022/10/30 07:00:51;;;;;;;15.30;6.38;;;18.80;89.30;;;;;;4991941;28;20109;-72
2022/10/30 07:03:17;;;;;;;12.25;6.13;;;19.00;88.70;;;;;;4992476;28;20552;-72
2022/10/30 07:05:43;;;;;;;11.25;6.55;;;19.10;87.80;;;;;;4993347;28;20022;-73
2022/10/30 07:08:09;;;;;;;14.82;6.57;;;19.30;87.40;;;;;;4991961;28;20038;-73
2022/10/30 07:10:34;;;;;;;12.30;5.82;;;19.50;86.70;;;;;;4993152;28;20088;-72
2022/10/30 07:13:00;;;;;;;12.50;5.47;;;19.60;86.20;;;;;;4992349;28;20023;-73
2022/10/30 07:15:26;;;;;;;7.85;4.78;;;19.70;85.60;;;;;;4990098;28;20050;-72
2022/10/30 07:18:02;;;;;;;10.63;5.65;;;19.80;84.80;;;;;;4991504;28;20022;-72
2022/10/30 07:20:30;;;;;;;12.77;6.07;;;19.90;83.10;;;;;;4991053;28;20029;-72
2022/10/30 07:22:55;;;;;;;9.68;5.07;;;20.00;82.80;;;;;;4993021;28;20034;-73
2022/10/30 07:25:21;;;;;;;11.13;5.20;;;20.10;83.80;;;;;;4991727;28;20101;-72
2022/10/30 07:27:49;;;;;;;15.35;6.38;;;20.20;82.90;;;;;;4991406;28;20116;-73
2022/10/30 07:30:17;;;;;;;14.68;5.60;;;20.40;82.40;;;;;;4981130;28;20137;-74
2022/10/30 07:32:43;;;;;;;18.75;5.97;;;20.60;81.70;;;;;;4989293;28;20035;-72
2022/10/30 07:35:11;;;;;;;19.35;5.85;;;20.70;80.80;;;;;;4991599;28;20030;-73
2022/10/30 07:37:37;;;;;;;18.25;6.55;;;20.90;80.30;;;;;;4986910;28;20091;-72
2022/10/30 07:40:04;;;;;;;14.88;5.47;;;21.00;79.90;;;;;;4990920;28;20105;-72
2022/10/30 07:42:29;;;;;;;11.13;5.15;;;21.10;79.50;;;;;;4991481;28;20433;-72
2022/10/30 07:44:55;;;;;;;17.45;6.20;;;21.30;78.90;;;;;;4989832;28;20069;-73
2022/10/30 07:47:20;;;;;;;14.35;6.20;;;21.50;78.10;;;;;;5002060;28;20029;-73
2022/10/30 07:49:46;;;;;;;14.73;5.45;;;21.60;77.20;;;;;;4996194;28;20033;-73
2022/10/30 07:52:12;;;;;;;12.05;5.82;;;21.60;76.90;;;;;;5001274;28;20021;-72
2022/10/30 07:54:41;;;;;;;16.10;6.82;;;21.70;76.50;;;;;;4999234;28;20049;-73
2022/10/30 07:57:06;;;;;;;11.13;6.30;;;21.80;75.50;;;;;;4994959;28;20099;-73
2022/10/30 07:59:35;;;;;;;17.23;7.40;;;21.90;74.40;;;;;;4999421;28;20022;-72
2022/10/30 08:02:00;;;;;;;12.48;5.50;;;21.90;73.60;;;;;;4999592;28;20034;-73
2022/10/30 08:04:26;;;;;;;13.48;5.72;;;21.70;73.90;;;;;;4998679;28;20022;-73
2022/10/30 08:06:58;;;;;;;12.27;5.30;;;21.70;74.40;;;;;;4997093;28;20073;-73
2022/10/30 08:09:24;;;;;;;16.98;6.78;;;21.70;74.80;;;;;;4995236;28;20057;-72
2022/10/30 08:11:49;;;;;;;14.43;8.65;;;21.70;74.50;;;;;;4989306;28;20189;-72
2022/10/30 08:14:15;;;;;;;18.40;9.55;;;21.70;72.00;;;;;;4994367;28;20022;-73
2022/10/30 08:16:40;;;;;;;12.35;8.23;;;21.60;71.50;;;;;;4995912;28;20050;-72
2022/10/30 08:19:06;;;;;;;12.25;7.43;;;21.50;71.80;;;;;;4997793;28;20034;-73
2022/10/30 08:21:32;;;;;;;14.38;8.88;;;21.30;72.20;;;;;;4993129;28;20042;-73
2022/10/30 08:23:58;;;;;;;15.73;8.30;;;21.20;72.40;;;;;;4989546;28;20027;-72
2022/10/30 08:26:23;;;;;;;18.80;9.43;;;21.00;72.30;;;;;;4988897;28;20065;-73
2022/10/30 08:28:49;;;;;;;20.17;9.30;;;21.00;72.20;;;;;;4989767;28;20026;-72
2022/10/30 08:31:14;;;;;;;17.85;8.77;;;20.90;73.40;;;;;;4988845;28;20661;-72
2022/10/30 08:33:40;;;;;;;16.73;10.50;;;20.80;73.30;;;;;;4998272;28;20030;-72
2022/10/30 08:36:06;;;;;;;16.15;9.57;;;20.80;73.20;;;;;;4994877;28;20023;-73
2022/10/30 08:38:32;;;;;;;17.15;8.73;;;20.90;73.00;;;;;;4995711;28;20075;-75
2022/10/30 08:40:58;;;;;;;18.25;8.43;;;20.90;72.80;;;;;;4992084;28;20373;-73
2022/10/30 08:43:25;;;;;;;15.15;8.88;;;20.80;72.60;;;;;;4989618;28;20135;-72
2022/10/30 08:45:51;;;;;;;14.40;9.27;;;20.80;73.10;;;;;;4990404;28;20077;-72
2022/10/30 08:48:16;;;;;;;15.57;8.15;;;20.90;73.60;;;;;;4990781;28;20030;-72
2022/10/30 08:50:43;;;;;;;12.60;7.60;;;21.00;73.60;;;;;;4990434;28;20033;-73
2022/10/30 08:53:13;;;;;;;14.20;8.63;;;21.10;73.00;;;;;;4989580;28;20029;-73
2022/10/30 08:55:39;;;;;;;14.57;8.52;;;21.20;72.60;;;;;;4988453;28;20034;-72
2022/10/30 08:58:05;;;;;;;15.82;8.00;;;21.20;72.10;;;;;;4990417;28;20030;-73
2022/10/30 09:00:30;;;;;;;11.23;7.13;;;21.20;72.30;;;;;;4990638;28;20507;-73
2022/10/30 09:02:57;;;;;;;15.70;9.02;;;21.20;72.30;;;;;;4988958;28;20026;-72
2022/10/30 09:05:23;;;;;;;19.70;10.43;;;21.20;71.60;;;;;;4989504;28;20027;-73
2022/10/30 09:07:48;;;;;;;13.48;8.75;;;21.20;70.90;;;;;;4993439;28;20489;-74
2022/10/30 09:10:14;;;;;;;18.58;8.77;;;21.10;71.50;;;;;;4996755;28;20030;-72
2022/10/30 09:12:45;;;;;;;17.05;9.07;;;21.20;71.60;;;;;;4988879;28;20033;-72
2022/10/30 09:15:11;;;;;;;14.82;8.02;;;21.10;71.10;;;;;;4989151;28;20061;-72
2022/10/30 09:17:37;;;;;;;19.27;11.02;;;21.10;72.40;;;;;;4987213;28;20026;-77
2022/10/30 09:20:03;;;;;;;20.00;10.73;;;21.20;71.20;;;;;;4987864;28;20099;-76
2022/10/30 09:22:40;;;;;;;16.60;10.50;;;21.40;70.60;;;;;;5064396;28;20468;-76
2022/10/30 09:25:06;;;;;;;18.98;11.00;;;21.60;70.90;;;;;;5056571;28;20064;-75
2022/10/30 09:27:39;;;;;;;24.73;11.77;;;21.80;69.10;;;;;;5059838;28;20126;-75
2022/10/30 09:30:05;;;;;;;20.38;9.98;;;22.00;68.30;;;;;;5059075;28;20028;-73
2022/10/30 09:32:34;;;;;;;16.05;9.23;;;22.20;67.70;;;;;;5058356;28;20040;-74
2022/10/30 09:35:00;;;;;;;17.73;9.55;;;22.30;67.70;;;;;;5039464;28;20029;-74
2022/10/30 09:37:26;;;;;;;13.15;7.22;;;22.40;67.40;;;;;;5039367;28;20021;-75
2022/10/30 09:39:52;;;;;;;14.02;8.25;;;22.30;67.80;;;;;;5041743;28;20045;-76
2022/10/30 09:42:35;;;;;;;14.70;8.52;;;22.20;67.80;;;;;;5037791;28;20045;-75
2022/10/30 09:45:20;;;;;;;15.80;9.70;;;22.10;67.90;;;;;;5040146;28;20080;-76
2022/10/30 09:48:13;;;;;;;14.15;8.43;;;22.20;68.20;;;;;;5040126;28;20021;-75
2022/10/30 09:51:16;;;;;;;17.65;8.90;;;22.30;68.50;;;;;;5036375;28;20032;-75
2022/10/30 09:54:01;;;;;;;12.65;8.10;;;22.50;70.10;;;;;;5041321;28;20024;-73
2022/10/30 09:56:33;;;;;;;15.98;9.68;;;22.60;68.80;;;;;;5037773;28;20112;-76
2022/10/30 09:59:42;;;;;;;14.55;6.30;;;22.80;68.10;;;;;;5032826;28;20067;-74
2022/10/30 10:02:29;;;;;;;17.48;8.63;;;22.90;70.10;;;;;;5034899;28;20048;-75
2022/10/30 10:04:59;;;;;;;15.55;6.25;;;23.00;69.30;;;;;;5038256;28;20025;-74
2022/10/30 10:07:34;;;;;;;17.05;10.63;;;23.20;69.80;;;;;;5037483;28;20035;-74
2022/10/30 10:10:04;;;;;;;20.48;10.52;;;23.30;68.00;;;;;;5031506;28;20088;-75
2022/10/30 10:12:49;;;;;;;;;;;23.20;65.60;;;;;;5033437;28;20060;-74
2022/10/30 10:15:47;;;;;;;15.27;9.25;;;23.10;67.10;;;;;;5032128;28;19920;-73
2022/10/30 10:18:19;;;;;;;10.18;5.82;;;22.90;67.30;;;;;;5030848;28;20402;-75
2022/10/30 10:20:48;;;;;;;10.57;7.22;;;22.70;69.30;;;;;;5033005;28;20099;-75
2022/10/30 10:23:18;;;;;;;19.10;8.98;;;22.60;70.70;;;;;;5029963;28;20052;-76
2022/10/30 10:25:52;;;;;;;18.35;10.35;;;22.60;69.30;;;;;;5032217;28;20501;-76
2022/10/30 10:28:38;;;;;;;17.40;9.35;;;22.70;69.10;;;;;;5030945;28;20033;-75
2022/10/30 10:31:30;;;;;;;18.60;11.15;;;22.80;69.60;;;;;;5030900;28;20395;-77
2022/10/30 10:34:32;;;;;;;18.80;10.00;;;23.00;68.40;;;;;;5019729;28;20581;-77
2022/10/30 10:37:22;;;;;;;14.35;9.10;;;23.00;68.10;;;;;;5027781;28;20474;-77
2022/10/30 10:40:06;;;;;;;;;;;23.00;66.90;;;;;;5023852;28;20026;-75
2022/10/30 10:42:50;;;;;;;16.95;10.23;;;23.00;66.50;;;;;;5024388;28;19917;-75
2022/10/30 10:45:32;;;;;;;19.90;11.30;;;22.90;66.60;;;;;;5018709;28;20914;-74
2022/10/30 10:48:52;;;;;;;13.43;8.20;;;22.80;67.00;;;;;;5025539;28;20021;-76
2022/10/30 10:51:27;;;;;;;17.50;9.32;;;22.80;67.40;;;;;;5007695;28;20119;-75
2022/10/30 10:54:31;;;;;;;18.77;10.27;;;22.80;68.80;;;;;;5022786;28;20034;-75
2022/10/30 10:56:58;;;;;;;13.70;7.82;;;23.00;67.60;;;;;;5015953;28;20123;-74
2022/10/30 10:59:43;;;;;;;15.27;9.40;;;23.10;70.20;;;;;;5024130;28;20037;-76
2022/10/30 11:02:28;;;;;;;16.30;7.88;;;23.20;67.10;;;;;;5023256;28;20038;-77
2022/10/30 11:05:01;;;;;;;18.90;10.60;;;23.50;67.90;;;;;;5027405;28;20018;-76
2022/10/30 11:07:32;;;;;;;17.33;9.48;;;23.60;65.80;;;;;;5026556;28;20100;-76
2022/10/30 11:09:58;;;;;;;21.17;10.45;;;23.60;65.20;;;;;;5024544;28;20459;-76
2022/10/30 11:12:34;;;;;;;16.67;9.25;;;23.60;64.50;;;;;;5023106;28;20025;-76
2022/10/30 11:15:17;;;;;;;16.25;10.13;;;23.70;65.10;;;;;;5022223;28;20034;-78
2022/10/30 11:18:08;;;;;;;18.02;9.82;;;23.90;64.80;;;;;;5025631;28;20161;-77
2022/10/30 11:20:39;;;;;;;12.23;7.18;;;24.10;64.60;;;;;;5026202;28;20045;-76
2022/10/30 11:23:33;;;;;;;12.68;7.22;;;24.20;65.00;;;;;;5024336;28;20021;-77
2022/10/30 11:26:01;;;;;;;18.23;9.68;;;24.20;64.40;;;;;;5020830;28;20112;-76
2022/10/30 11:28:49;;;;;;;17.67;10.45;;;24.20;63.70;;;;;;5018514;28;20037;-76
2022/10/30 11:31:27;;;;;;;11.55;6.32;;;24.30;64.80;;;;;;5019466;28;20029;-75
2022/10/30 11:33:53;;;;;;;17.70;11.48;;;24.30;65.20;;;;;;5020534;28;20082;-75
2022/10/30 11:36:22;;;;;;;13.75;9.10;;;24.30;63.30;;;;;;5021623;28;20029;-75
2022/10/30 11:38:48;;;;;;;12.97;8.40;;;24.30;63.20;;;;;;5016274;28;20112;-77
2022/10/30 11:41:14;;;;;;;14.13;7.53;;;24.30;64.10;;;;;;5021120;28;20774;-76
2022/10/30 11:43:42;;;;;;;14.27;9.40;;;24.40;64.20;;;;;;5017043;28;20030;-76
2022/10/30 11:46:11;;;;;;;16.02;8.45;;;24.50;64.70;;;;;;5015299;28;20026;-77
2022/10/30 11:48:38;;;;;;;14.17;7.17;;;24.60;65.90;;;;;;5017603;28;20074;-78
2022/10/30 11:51:05;;;;;;;14.13;7.47;;;24.70;64.50;;;;;;5018937;28;20014;-76
2022/10/30 11:53:37;;;;;;;14.82;7.93;;;24.70;67.20;;;;;;5017888;28;20025;-77
2022/10/30 11:56:18;;;;;;;15.32;6.93;;;24.80;63.80;;;;;;5017489;28;20029;-78
2022/10/30 11:58:48;;;;;;;11.20;4.90;;;24.80;67.30;;;;;;5018173;28;20051;-78
2022/10/30 12:01:30;;;;;;;17.17;9.30;;;24.90;72.00;;;;;;5023913;28;20033;-77
2022/10/30 12:04:11;;;;;;;17.30;8.00;;;25.00;66.70;;;;;;5022413;28;20037;-77
2022/10/30 12:06:37;;;;;;;16.88;8.18;;;25.10;69.00;;;;;;5020879;28;20031;-77
2022/10/30 12:09:09;;;;;;;17.08;8.18;;;25.00;64.50;;;;;;5026311;28;20022;-78
2022/10/30 12:11:37;;;;;;;16.05;8.00;;;25.00;64.30;;;;;;5018175;28;20022;-78
2022/10/30 12:14:03;;;;;;;19.48;9.05;;;24.90;64.50;;;;;;5020104;28;20021;-78
2022/10/30 12:16:29;;;;;;;12.57;6.82;;;24.90;65.70;;;;;;5017104;28;20026;-77
2022/10/30 12:19:13;;;;;;;13.13;6.03;;;24.80;67.10;;;;;;5013267;28;20398;-77
2022/10/30 12:21:46;;;;;;;12.95;5.30;;;24.80;73.30;;;;;;5022060;28;20049;-77
2022/10/30 12:24:30;;;;;;;17.33;9.02;;;24.80;73.80;;;;;;5022609;28;20091;-77
2022/10/30 12:27:00;;;;;;;12.18;5.72;;;24.80;68.60;;;;;;5022619;28;20033;-77
2022/10/30 12:29:38;;;;;;;14.57;8.07;;;24.80;70.70;;;;;;5021599;28;20025;-77
2022/10/30 12:32:08;;;;;;;17.08;8.68;;;24.80;72.40;;;;;;5014117;28;20531;-78
2022/10/30 12:34:44;;;;;;;9.53;5.07;;;24.70;65.80;;;;;;5019176;28;20108;-77
2022/10/30 12:37:21;;;;;;;14.23;6.95;;;24.70;65.10;;;;;;5018121;28;20376;-78
2022/10/30 12:39:55;;;;;;;15.13;6.82;;;24.70;67.60;;;;;;5017293;28;20034;-77
2022/10/30 12:42:23;;;;;;;14.15;5.80;;;24.70;67.00;;;;;;5018275;28;20029;-77
2022/10/30 12:45:06;;;;;;;15.18;6.13;;;24.60;71.30;;;;;;5024480;28;20100;-79
2022/10/30 12:47:57;;;;;;;13.68;6.07;;;24.60;69.50;;;;;;5026967;28;20025;-79
2022/10/30 12:50:28;;;;;;;13.07;5.72;;;24.50;69.80;;;;;;5022601;28;20025;-78
2022/10/30 12:53:05;;;;;;;11.57;4.80;;;24.50;68.30;;;;;;5014168;28;20037;-77
2022/10/30 12:55:45;;;;;;;11.20;4.95;;;24.40;72.20;;;;;;5017851;28;20498;-77